sensor_id;sensor_type;location;lat;lon;timestamp;P1;durP1;ratioP1;P2;durP2;ratioP2
72557;SDS011;60583;50.094;8.748;2024-02-14T00:01:08;5.65;;;2.92;;
72557;SDS011;60583;50.094;8.748;2024-02-14T00:03:52;6.63;;;2.88;;
72557;SDS011;60583;50.094;8.748;2024-02-14T00:06:36;5.88;;;2.13;;
72557;SDS011;60583;50.094;8.748;2024-02-14T00:09:25;5.45;;;2.30;;
72557;SDS011;60583;50.094;8.748;2024-02-14T00:12:09;5.13;;;2.17;;
72557;SDS011;60583;50.094;8.748;2024-02-14T00:14:54;4.63;;;2.00;;
72557;SDS011;60583;50.094;8.748;2024-02-14T00:17:38;5.03;;;2.10;;
72557;SDS011;60583;50.094;8.748;2024-02-14T00:20:22;4.82;;;2.00;;
72557;SDS011;60583;50.094;8.748;2024-02-14T00:23:05;7.82;;;2.90;;
72557;SDS011;60583;50.094;8.748;2024-02-14T00:25:49;4.57;;;2.22;;
72557;SDS011;60583;50.094;8.748;2024-02-14T00:28:33;6.07;;;2.38;;
72557;SDS011;60583;50.094;8.748;2024-02-14T00:31:17;5.65;;;2.20;;
72557;SDS011;60583;50.094;8.748;2024-02-14T00:34:01;6.05;;;2.72;;
72557;SDS011;60583;50.094;8.748;2024-02-14T00:36:45;6.72;;;2.33;;
72557;SDS011;60583;50.094;8.748;2024-02-14T00:39:30;6.15;;;2.28;;
72557;SDS011;60583;50.094;8.748;2024-02-14T00:42:14;4.70;;;2.13;;
72557;SDS011;60583;50.094;8.748;2024-02-14T00:44:58;6.80;;;2.20;;
72557;SDS011;60583;50.094;8.748;2024-02-14T00:47:41;6.93;;;2.50;;
72557;SDS011;60583;50.094;8.748;2024-02-14T00:50:25;5.35;;;2.17;;
72557;SDS011;60583;50.094;8.748;2024-02-14T00:53:09;4.55;;;2.00;;
72557;SDS011;60583;50.094;8.748;2024-02-14T00:55:53;5.43;;;1.90;;
72557;SDS011;60583;50.094;8.748;2024-02-14T00:58:37;4.38;;;1.70;;
72557;SDS011;60583;50.094;8.748;2024-02-14T01:01:21;4.32;;;1.67;;
72557;SDS011;60583;50.094;8.748;2024-02-14T01:04:05;4.50;;;2.10;;
72557;SDS011;60583;50.094;8.748;2024-02-14T01:06:49;4.38;;;1.90;;
72557;SDS011;60583;50.094;8.748;2024-02-14T01:09:34;4.95;;;1.90;;
72557;SDS011;60583;50.094;8.748;2024-02-14T01:12:19;4.03;;;2.00;;
72557;SDS011;60583;50.094;8.748;2024-02-14T01:15:03;6.65;;;2.20;;
72557;SDS011;60583;50.094;8.748;2024-02-14T01:17:48;4.90;;;2.10;;
72557;SDS011;60583;50.094;8.748;2024-02-14T01:20:32;5.72;;;2.00;;
72557;SDS011;60583;50.094;8.748;2024-02-14T01:23:15;5.40;;;2.35;;
72557;SDS011;60583;50.094;8.748;2024-02-14T01:25:59;4.95;;;2.00;;
72557;SDS011;60583;50.094;8.748;2024-02-14T01:28:43;5.38;;;1.95;;
72557;SDS011;60583;50.094;8.748;2024-02-14T01:31:28;5.38;;;2.20;;
72557;SDS011;60583;50.094;8.748;2024-02-14T01:34:12;4.68;;;1.83;;
72557;SDS011;60583;50.094;8.748;2024-02-14T01:36:56;5.57;;;2.15;;
72557;SDS011;60583;50.094;8.748;2024-02-14T01:39:40;4.28;;;2.03;;
72557;SDS011;60583;50.094;8.748;2024-02-14T01:42:24;5.70;;;2.08;;
72557;SDS011;60583;50.094;8.748;2024-02-14T01:45:08;5.30;;;1.90;;
72557;SDS011;60583;50.094;8.748;2024-02-14T01:47:52;4.70;;;1.80;;
72557;SDS011;60583;50.094;8.748;2024-02-14T01:50:37;6.00;;;2.10;;
72557;SDS011;60583;50.094;8.748;2024-02-14T01:53:22;4.50;;;2.00;;
72557;SDS011;60583;50.094;8.748;2024-02-14T01:56:06;4.55;;;2.03;;
72557;SDS011;60583;50.094;8.748;2024-02-14T01:58:50;4.93;;;2.13;;
72557;SDS011;60583;50.094;8.748;2024-02-14T02:01:35;4.80;;;1.92;;
72557;SDS011;60583;50.094;8.748;2024-02-14T02:04:19;5.43;;;2.22;;
72557;SDS011;60583;50.094;8.748;2024-02-14T02:07:04;6.60;;;2.20;;
72557;SDS011;60583;50.094;8.748;2024-02-14T02:09:48;5.30;;;2.47;;
72557;SDS011;60583;50.094;8.748;2024-02-14T02:12:32;4.88;;;2.17;;
72557;SDS011;60583;50.094;8.748;2024-02-14T02:15:16;4.00;;;1.90;;
72557;SDS011;60583;50.094;8.748;2024-02-14T02:18:02;4.63;;;1.98;;
72557;SDS011;60583;50.094;8.748;2024-02-14T02:23:33;5.35;;;2.30;;
72557;SDS011;60583;50.094;8.748;2024-02-14T02:26:17;5.43;;;2.10;;
72557;SDS011;60583;50.094;8.748;2024-02-14T02:29:01;4.20;;;1.90;;
72557;SDS011;60583;50.094;8.748;2024-02-14T02:31:46;6.20;;;2.20;;
72557;SDS011;60583;50.094;8.748;2024-02-14T02:34:30;5.70;;;2.10;;
72557;SDS011;60583;50.094;8.748;2024-02-14T02:37:14;6.68;;;2.05;;
72557;SDS011;60583;50.094;8.748;2024-02-14T02:40:00;6.72;;;2.10;;
72557;SDS011;60583;50.094;8.748;2024-02-14T02:42:44;5.57;;;2.15;;
72557;SDS011;60583;50.094;8.748;2024-02-14T02:45:31;5.00;;;2.00;;
72557;SDS011;60583;50.094;8.748;2024-02-14T02:48:15;5.93;;;2.25;;
72557;SDS011;60583;50.094;8.748;2024-02-14T02:50:58;6.20;;;2.50;;
72557;SDS011;60583;50.094;8.748;2024-02-14T02:53:43;4.03;;;2.25;;
72557;SDS011;60583;50.094;8.748;2024-02-14T02:56:27;4.82;;;1.90;;
72557;SDS011;60583;50.094;8.748;2024-02-14T02:59:11;4.85;;;1.98;;
72557;SDS011;60583;50.094;8.748;2024-02-14T03:01:56;5.18;;;2.30;;
72557;SDS011;60583;50.094;8.748;2024-02-14T03:04:41;5.32;;;2.08;;
72557;SDS011;60583;50.094;8.748;2024-02-14T03:07:25;4.25;;;1.75;;
72557;SDS011;60583;50.094;8.748;2024-02-14T03:10:10;4.47;;;2.00;;
72557;SDS011;60583;50.094;8.748;2024-02-14T03:12:53;5.85;;;1.98;;
72557;SDS011;60583;50.094;8.748;2024-02-14T03:15:38;6.05;;;2.30;;
72557;SDS011;60583;50.094;8.748;2024-02-14T03:18:22;4.65;;;1.90;;
72557;SDS011;60583;50.094;8.748;2024-02-14T03:21:06;5.47;;;2.25;;
72557;SDS011;60583;50.094;8.748;2024-02-14T03:23:50;5.07;;;2.20;;
72557;SDS011;60583;50.094;8.748;2024-02-14T03:26:34;7.30;;;2.30;;
72557;SDS011;60583;50.094;8.748;2024-02-14T03:29:18;5.38;;;1.92;;
72557;SDS011;60583;50.094;8.748;2024-02-14T03:32:03;7.90;;;2.47;;
72557;SDS011;60583;50.094;8.748;2024-02-14T03:34:47;5.07;;;2.67;;
72557;SDS011;60583;50.094;8.748;2024-02-14T03:37:32;7.00;;;2.28;;
72557;SDS011;60583;50.094;8.748;2024-02-14T03:40:15;4.68;;;2.15;;
72557;SDS011;60583;50.094;8.748;2024-02-14T03:43:00;4.90;;;2.50;;
72557;SDS011;60583;50.094;8.748;2024-02-14T03:45:44;7.28;;;2.70;;
72557;SDS011;60583;50.094;8.748;2024-02-14T03:48:28;5.60;;;2.50;;
72557;SDS011;60583;50.094;8.748;2024-02-14T03:51:12;5.22;;;2.40;;
72557;SDS011;60583;50.094;8.748;2024-02-14T03:53:56;6.30;;;2.60;;
72557;SDS011;60583;50.094;8.748;2024-02-14T03:56:40;6.85;;;2.50;;
72557;SDS011;60583;50.094;8.748;2024-02-14T03:59:24;6.38;;;2.67;;
72557;SDS011;60583;50.094;8.748;2024-02-14T04:02:08;6.47;;;2.70;;
72557;SDS011;60583;50.094;8.748;2024-02-14T04:04:53;7.72;;;2.95;;
72557;SDS011;60583;50.094;8.748;2024-02-14T04:07:37;5.75;;;2.40;;
72557;SDS011;60583;50.094;8.748;2024-02-14T04:10:21;7.25;;;2.90;;
72557;SDS011;60583;50.094;8.748;2024-02-14T04:13:06;6.50;;;2.80;;
72557;SDS011;60583;50.094;8.748;2024-02-14T04:15:49;5.45;;;2.80;;
72557;SDS011;60583;50.094;8.748;2024-02-14T04:18:33;4.82;;;2.58;;
72557;SDS011;60583;50.094;8.748;2024-02-14T04:21:17;5.20;;;2.30;;
72557;SDS011;60583;50.094;8.748;2024-02-14T04:24:01;7.03;;;2.97;;
72557;SDS011;60583;50.094;8.748;2024-02-14T04:26:45;7.53;;;2.92;;
72557;SDS011;60583;50.094;8.748;2024-02-14T04:29:29;5.55;;;2.30;;
72557;SDS011;60583;50.094;8.748;2024-02-14T04:32:16;6.20;;;2.60;;
72557;SDS011;60583;50.094;8.748;2024-02-14T04:35:01;5.00;;;2.53;;
72557;SDS011;60583;50.094;8.748;2024-02-14T04:37:45;6.28;;;2.42;;
72557;SDS011;60583;50.094;8.748;2024-02-14T04:40:30;6.22;;;2.80;;
72557;SDS011;60583;50.094;8.748;2024-02-14T04:43:13;6.20;;;2.97;;
72557;SDS011;60583;50.094;8.748;2024-02-14T04:45:57;6.50;;;2.85;;
72557;SDS011;60583;50.094;8.748;2024-02-14T04:48:42;6.28;;;2.55;;
72557;SDS011;60583;50.094;8.748;2024-02-14T04:51:25;6.45;;;2.72;;
72557;SDS011;60583;50.094;8.748;2024-02-14T04:54:09;5.00;;;2.40;;
72557;SDS011;60583;50.094;8.748;2024-02-14T04:56:54;6.85;;;2.63;;
72557;SDS011;60583;50.094;8.748;2024-02-14T04:59:38;5.93;;;2.72;;
72557;SDS011;60583;50.094;8.748;2024-02-14T05:02:22;6.68;;;2.40;;
72557;SDS011;60583;50.094;8.748;2024-02-14T05:05:05;5.15;;;2.42;;
72557;SDS011;60583;50.094;8.748;2024-02-14T05:07:51;6.35;;;2.50;;
72557;SDS011;60583;50.094;8.748;2024-02-14T05:10:35;6.80;;;2.90;;
72557;SDS011;60583;50.094;8.748;2024-02-14T05:13:20;7.15;;;2.88;;
72557;SDS011;60583;50.094;8.748;2024-02-14T05:16:04;5.43;;;2.15;;
72557;SDS011;60583;50.094;8.748;2024-02-14T05:18:48;6.32;;;2.40;;
72557;SDS011;60583;50.094;8.748;2024-02-14T05:21:32;5.25;;;2.33;;
72557;SDS011;60583;50.094;8.748;2024-02-14T05:24:16;5.32;;;2.40;;
72557;SDS011;60583;50.094;8.748;2024-02-14T05:27:00;7.93;;;2.70;;
72557;SDS011;60583;50.094;8.748;2024-02-14T05:29:44;5.63;;;2.33;;
72557;SDS011;60583;50.094;8.748;2024-02-14T05:32:28;6.10;;;2.38;;
72557;SDS011;60583;50.094;8.748;2024-02-14T05:35:12;7.15;;;2.72;;
72557;SDS011;60583;50.094;8.748;2024-02-14T05:37:56;5.50;;;2.47;;
72557;SDS011;60583;50.094;8.748;2024-02-14T05:40:40;6.15;;;2.70;;
72557;SDS011;60583;50.094;8.748;2024-02-14T05:43:24;5.53;;;2.83;;
72557;SDS011;60583;50.094;8.748;2024-02-14T05:46:08;5.38;;;2.53;;
72557;SDS011;60583;50.094;8.748;2024-02-14T05:48:53;5.72;;;2.63;;
72557;SDS011;60583;50.094;8.748;2024-02-14T05:51:37;7.45;;;2.75;;
72557;SDS011;60583;50.094;8.748;2024-02-14T05:54:20;7.82;;;2.67;;
72557;SDS011;60583;50.094;8.748;2024-02-14T05:57:04;5.35;;;2.33;;
72557;SDS011;60583;50.094;8.748;2024-02-14T05:59:48;5.80;;;2.65;;
72557;SDS011;60583;50.094;8.748;2024-02-14T06:02:32;6.00;;;2.63;;
72557;SDS011;60583;50.094;8.748;2024-02-14T06:05:16;5.47;;;2.90;;
72557;SDS011;60583;50.094;8.748;2024-02-14T06:08:00;7.20;;;2.75;;
72557;SDS011;60583;50.094;8.748;2024-02-14T06:10:46;5.47;;;2.40;;
72557;SDS011;60583;50.094;8.748;2024-02-14T06:13:31;8.93;;;2.97;;
72557;SDS011;60583;50.094;8.748;2024-02-14T06:16:15;7.10;;;3.03;;
72557;SDS011;60583;50.094;8.748;2024-02-14T06:19:00;6.07;;;2.85;;
72557;SDS011;60583;50.094;8.748;2024-02-14T06:21:44;6.18;;;2.50;;
72557;SDS011;60583;50.094;8.748;2024-02-14T06:24:28;6.47;;;2.70;;
72557;SDS011;60583;50.094;8.748;2024-02-14T06:27:12;7.63;;;2.40;;
72557;SDS011;60583;50.094;8.748;2024-02-14T06:29:56;7.88;;;2.88;;
72557;SDS011;60583;50.094;8.748;2024-02-14T06:32:40;5.38;;;2.63;;
72557;SDS011;60583;50.094;8.748;2024-02-14T06:35:24;7.25;;;2.35;;
72557;SDS011;60583;50.094;8.748;2024-02-14T06:38:08;6.25;;;2.30;;
72557;SDS011;60583;50.094;8.748;2024-02-14T06:40:53;5.43;;;2.50;;
72557;SDS011;60583;50.094;8.748;2024-02-14T06:43:37;6.28;;;2.97;;
72557;SDS011;60583;50.094;8.748;2024-02-14T06:46:22;5.65;;;2.58;;
72557;SDS011;60583;50.094;8.748;2024-02-14T06:49:06;6.95;;;2.63;;
72557;SDS011;60583;50.094;8.748;2024-02-14T06:51:51;6.47;;;2.63;;
72557;SDS011;60583;50.094;8.748;2024-02-14T06:54:35;6.22;;;2.95;;
72557;SDS011;60583;50.094;8.748;2024-02-14T06:57:19;5.90;;;2.65;;
72557;SDS011;60583;50.094;8.748;2024-02-14T07:00:03;6.10;;;2.65;;
72557;SDS011;60583;50.094;8.748;2024-02-14T07:02:49;7.32;;;3.30;;
72557;SDS011;60583;50.094;8.748;2024-02-14T07:05:33;6.35;;;2.80;;
72557;SDS011;60583;50.094;8.748;2024-02-14T07:08:17;6.15;;;2.83;;
72557;SDS011;60583;50.094;8.748;2024-02-14T07:11:01;7.25;;;3.00;;
72557;SDS011;60583;50.094;8.748;2024-02-14T07:13:45;7.07;;;3.05;;
72557;SDS011;60583;50.094;8.748;2024-02-14T07:16:29;7.00;;;3.10;;
72557;SDS011;60583;50.094;8.748;2024-02-14T07:19:13;8.68;;;3.10;;
72557;SDS011;60583;50.094;8.748;2024-02-14T07:21:57;6.63;;;2.75;;
72557;SDS011;60583;50.094;8.748;2024-02-14T07:24:41;5.60;;;2.88;;
72557;SDS011;60583;50.094;8.748;2024-02-14T07:27:26;5.78;;;2.80;;
72557;SDS011;60583;50.094;8.748;2024-02-14T07:30:10;5.97;;;2.95;;
72557;SDS011;60583;50.094;8.748;2024-02-14T07:32:55;5.95;;;2.28;;
72557;SDS011;60583;50.094;8.748;2024-02-14T07:35:39;6.78;;;2.88;;
72557;SDS011;60583;50.094;8.748;2024-02-14T07:38:23;6.90;;;2.63;;
72557;SDS011;60583;50.094;8.748;2024-02-14T07:41:07;6.28;;;2.50;;
72557;SDS011;60583;50.094;8.748;2024-02-14T07:43:51;5.43;;;2.45;;
72557;SDS011;60583;50.094;8.748;2024-02-14T07:46:36;6.22;;;2.50;;
72557;SDS011;60583;50.094;8.748;2024-02-14T07:49:20;5.28;;;2.22;;
72557;SDS011;60583;50.094;8.748;2024-02-14T07:52:04;6.60;;;2.50;;
72557;SDS011;60583;50.094;8.748;2024-02-14T07:54:52;6.55;;;2.50;;
72557;SDS011;60583;50.094;8.748;2024-02-14T07:57:37;6.50;;;2.65;;
72557;SDS011;60583;50.094;8.748;2024-02-14T08:00:21;5.45;;;2.53;;
72557;SDS011;60583;50.094;8.748;2024-02-14T08:03:09;6.60;;;2.90;;
72557;SDS011;60583;50.094;8.748;2024-02-14T08:05:53;7.60;;;2.70;;
72557;SDS011;60583;50.094;8.748;2024-02-14T08:08:36;5.65;;;2.22;;
72557;SDS011;60583;50.094;8.748;2024-02-14T08:11:21;7.72;;;2.80;;
72557;SDS011;60583;50.094;8.748;2024-02-14T08:14:05;7.45;;;2.53;;
72557;SDS011;60583;50.094;8.748;2024-02-14T08:16:49;6.65;;;2.38;;
72557;SDS011;60583;50.094;8.748;2024-02-14T08:19:33;5.35;;;2.35;;
72557;SDS011;60583;50.094;8.748;2024-02-14T08:22:16;5.18;;;2.28;;
72557;SDS011;60583;50.094;8.748;2024-02-14T08:25:00;5.82;;;2.80;;
72557;SDS011;60583;50.094;8.748;2024-02-14T08:27:45;6.20;;;2.28;;
72557;SDS011;60583;50.094;8.748;2024-02-14T08:30:29;6.22;;;2.42;;
72557;SDS011;60583;50.094;8.748;2024-02-14T08:33:13;7.40;;;2.58;;
72557;SDS011;60583;50.094;8.748;2024-02-14T08:35:57;6.15;;;2.70;;
72557;SDS011;60583;50.094;8.748;2024-02-14T08:38:41;5.93;;;2.45;;
72557;SDS011;60583;50.094;8.748;2024-02-14T08:41:25;6.05;;;2.50;;
72557;SDS011;60583;50.094;8.748;2024-02-14T08:44:09;5.55;;;2.22;;
72557;SDS011;60583;50.094;8.748;2024-02-14T08:46:53;5.43;;;2.58;;
72557;SDS011;60583;50.094;8.748;2024-02-14T08:49:40;5.70;;;2.45;;
72557;SDS011;60583;50.094;8.748;2024-02-14T08:52:23;5.05;;;2.58;;
72557;SDS011;60583;50.094;8.748;2024-02-14T08:55:08;5.40;;;2.63;;
72557;SDS011;60583;50.094;8.748;2024-02-14T08:57:57;5.55;;;2.70;;
72557;SDS011;60583;50.094;8.748;2024-02-14T09:00:41;5.82;;;2.70;;
72557;SDS011;60583;50.094;8.748;2024-02-14T09:03:25;6.38;;;2.67;;
72557;SDS011;60583;50.094;8.748;2024-02-14T09:06:09;6.07;;;2.65;;
72557;SDS011;60583;50.094;8.748;2024-02-14T09:08:53;6.70;;;2.72;;
72557;SDS011;60583;50.094;8.748;2024-02-14T09:11:38;5.35;;;2.22;;
72557;SDS011;60583;50.094;8.748;2024-02-14T09:14:22;7.45;;;2.50;;
72557;SDS011;60583;50.094;8.748;2024-02-14T09:17:06;5.28;;;2.20;;
72557;SDS011;60583;50.094;8.748;2024-02-14T09:19:51;5.15;;;2.10;;
72557;SDS011;60583;50.094;8.748;2024-02-14T09:22:35;5.43;;;2.35;;
72557;SDS011;60583;50.094;8.748;2024-02-14T09:25:20;5.60;;;2.28;;
72557;SDS011;60583;50.094;8.748;2024-02-14T09:28:06;5.20;;;2.20;;
72557;SDS011;60583;50.094;8.748;2024-02-14T09:30:51;4.60;;;2.30;;
72557;SDS011;60583;50.094;8.748;2024-02-14T09:33:35;7.65;;;2.40;;
72557;SDS011;60583;50.094;8.748;2024-02-14T09:36:20;6.55;;;2.50;;
72557;SDS011;60583;50.094;8.748;2024-02-14T09:39:04;5.13;;;2.58;;
72557;SDS011;60583;50.094;8.748;2024-02-14T09:41:51;6.32;;;2.55;;
72557;SDS011;60583;50.094;8.748;2024-02-14T09:44:37;7.43;;;2.90;;
72557;SDS011;60583;50.094;8.748;2024-02-14T09:47:23;5.32;;;2.60;;
72557;SDS011;60583;50.094;8.748;2024-02-14T09:50:09;7.05;;;2.83;;
72557;SDS011;60583;50.094;8.748;2024-02-14T09:52:53;4.72;;;2.30;;
72557;SDS011;60583;50.094;8.748;2024-02-14T09:55:37;5.05;;;2.70;;
72557;SDS011;60583;50.094;8.748;2024-02-14T09:58:23;6.32;;;2.55;;
72557;SDS011;60583;50.094;8.748;2024-02-14T10:01:08;4.45;;;2.35;;
72557;SDS011;60583;50.094;8.748;2024-02-14T10:03:52;6.13;;;2.80;;
72557;SDS011;60583;50.094;8.748;2024-02-14T10:06:37;7.38;;;3.10;;
72557;SDS011;60583;50.094;8.748;2024-02-14T10:09:22;9.68;;;3.10;;
72557;SDS011;60583;50.094;8.748;2024-02-14T10:12:06;6.50;;;2.95;;
72557;SDS011;60583;50.094;8.748;2024-02-14T10:14:52;5.53;;;3.05;;
72557;SDS011;60583;50.094;8.748;2024-02-14T10:17:38;7.20;;;2.55;;
72557;SDS011;60583;50.094;8.748;2024-02-14T10:20:24;8.32;;;2.70;;
72557;SDS011;60583;50.094;8.748;2024-02-14T10:23:08;7.15;;;2.83;;
72557;SDS011;60583;50.094;8.748;2024-02-14T10:25:54;6.47;;;2.90;;
72557;SDS011;60583;50.094;8.748;2024-02-14T10:28:42;8.25;;;3.20;;
72557;SDS011;60583;50.094;8.748;2024-02-14T10:31:27;7.50;;;2.97;;
72557;SDS011;60583;50.094;8.748;2024-02-14T10:34:11;5.85;;;2.83;;
72557;SDS011;60583;50.094;8.748;2024-02-14T10:36:56;4.97;;;2.70;;
72557;SDS011;60583;50.094;8.748;2024-02-14T10:39:44;6.13;;;2.50;;
72557;SDS011;60583;50.094;8.748;2024-02-14T10:42:31;6.38;;;2.72;;
72557;SDS011;60583;50.094;8.748;2024-02-14T10:45:15;8.40;;;3.10;;
72557;SDS011;60583;50.094;8.748;2024-02-14T10:48:00;5.97;;;3.20;;
72557;SDS011;60583;50.094;8.748;2024-02-14T10:50:44;5.13;;;2.90;;
72557;SDS011;60583;50.094;8.748;2024-02-14T10:53:32;5.65;;;2.80;;
72557;SDS011;60583;50.094;8.748;2024-02-14T10:56:18;7.15;;;2.75;;
72557;SDS011;60583;50.094;8.748;2024-02-14T10:59:05;6.00;;;3.00;;
72557;SDS011;60583;50.094;8.748;2024-02-14T11:01:51;5.35;;;2.88;;
72557;SDS011;60583;50.094;8.748;2024-02-14T11:04:36;4.82;;;2.63;;
72557;SDS011;60583;50.094;8.748;2024-02-14T11:07:20;7.10;;;3.03;;
72557;SDS011;60583;50.094;8.748;2024-02-14T11:10:08;6.32;;;2.90;;
72557;SDS011;60583;50.094;8.748;2024-02-14T11:12:53;5.78;;;2.42;;
72557;SDS011;60583;50.094;8.748;2024-02-14T11:15:38;7.28;;;2.50;;
72557;SDS011;60583;50.094;8.748;2024-02-14T11:18:27;4.95;;;2.28;;
72557;SDS011;60583;50.094;8.748;2024-02-14T11:21:27;7.45;;;2.58;;
72557;SDS011;60583;50.094;8.748;2024-02-14T11:24:12;5.82;;;2.40;;
72557;SDS011;60583;50.094;8.748;2024-02-14T11:26:58;6.15;;;2.40;;
72557;SDS011;60583;50.094;8.748;2024-02-14T11:29:52;5.20;;;2.17;;
72557;SDS011;60583;50.094;8.748;2024-02-14T11:32:36;4.28;;;1.85;;
72557;SDS011;60583;50.094;8.748;2024-02-14T11:35:23;4.50;;;2.03;;
72557;SDS011;60583;50.094;8.748;2024-02-14T11:38:09;4.43;;;2.08;;
72557;SDS011;60583;50.094;8.748;2024-02-14T11:40:53;4.88;;;2.10;;
72557;SDS011;60583;50.094;8.748;2024-02-14T11:43:50;4.60;;;1.92;;
72557;SDS011;60583;50.094;8.748;2024-02-14T11:46:34;4.80;;;1.88;;
72557;SDS011;60583;50.094;8.748;2024-02-14T11:49:19;5.45;;;2.22;;
72557;SDS011;60583;50.094;8.748;2024-02-14T11:52:04;4.75;;;1.90;;
72557;SDS011;60583;50.094;8.748;2024-02-14T11:54:48;4.78;;;1.80;;
72557;SDS011;60583;50.094;8.748;2024-02-14T11:57:35;4.63;;;2.17;;
72557;SDS011;60583;50.094;8.748;2024-02-14T12:00:19;5.07;;;2.30;;
72557;SDS011;60583;50.094;8.748;2024-02-14T12:03:05;4.65;;;2.38;;
72557;SDS011;60583;50.094;8.748;2024-02-14T12:05:53;5.30;;;2.30;;
72557;SDS011;60583;50.094;8.748;2024-02-14T12:08:37;5.03;;;2.25;;
72557;SDS011;60583;50.094;8.748;2024-02-14T12:11:21;3.95;;;2.13;;
72557;SDS011;60583;50.094;8.748;2024-02-14T12:14:05;5.03;;;2.25;;
72557;SDS011;60583;50.094;8.748;2024-02-14T12:16:50;6.25;;;2.10;;
72557;SDS011;60583;50.094;8.748;2024-02-14T12:19:35;4.65;;;2.47;;
72557;SDS011;60583;50.094;8.748;2024-02-14T12:22:21;6.40;;;2.40;;
72557;SDS011;60583;50.094;8.748;2024-02-14T12:25:05;6.55;;;2.75;;
72557;SDS011;60583;50.094;8.748;2024-02-14T12:27:56;5.28;;;2.33;;
72557;SDS011;60583;50.094;8.748;2024-02-14T12:30:44;4.60;;;2.17;;
72557;SDS011;60583;50.094;8.748;2024-02-14T12:33:28;5.30;;;2.38;;
72557;SDS011;60583;50.094;8.748;2024-02-14T12:36:13;4.15;;;2.13;;
72557;SDS011;60583;50.094;8.748;2024-02-14T12:38:57;3.92;;;2.33;;
72557;SDS011;60583;50.094;8.748;2024-02-14T12:41:41;5.00;;;2.50;;
72557;SDS011;60583;50.094;8.748;2024-02-14T12:44:25;4.78;;;2.40;;
72557;SDS011;60583;50.094;8.748;2024-02-14T12:47:09;5.20;;;2.70;;
72557;SDS011;60583;50.094;8.748;2024-02-14T12:49:54;6.25;;;2.40;;
72557;SDS011;60583;50.094;8.748;2024-02-14T12:52:38;5.80;;;2.50;;
72557;SDS011;60583;50.094;8.748;2024-02-14T12:55:22;6.10;;;2.90;;
72557;SDS011;60583;50.094;8.748;2024-02-14T12:58:09;5.25;;;2.22;;
72557;SDS011;60583;50.094;8.748;2024-02-14T13:00:56;4.68;;;2.30;;
72557;SDS011;60583;50.094;8.748;2024-02-14T13:03:39;5.07;;;2.50;;
72557;SDS011;60583;50.094;8.748;2024-02-14T13:06:23;5.15;;;2.50;;
72557;SDS011;60583;50.094;8.748;2024-02-14T13:09:08;4.55;;;2.20;;
72557;SDS011;60583;50.094;8.748;2024-02-14T13:11:51;5.50;;;2.42;;
72557;SDS011;60583;50.094;8.748;2024-02-14T13:14:36;4.63;;;2.20;;
72557;SDS011;60583;50.094;8.748;2024-02-14T13:17:20;5.40;;;2.25;;
72557;SDS011;60583;50.094;8.748;2024-02-14T13:20:04;4.90;;;2.47;;
72557;SDS011;60583;50.094;8.748;2024-02-14T13:22:49;5.47;;;2.28;;
72557;SDS011;60583;50.094;8.748;2024-02-14T13:25:33;4.78;;;2.05;;
72557;SDS011;60583;50.094;8.748;2024-02-14T13:28:17;4.55;;;2.78;;
72557;SDS011;60583;50.094;8.748;2024-02-14T13:31:02;6.38;;;2.30;;
72557;SDS011;60583;50.094;8.748;2024-02-14T13:33:46;4.90;;;2.17;;
72557;SDS011;60583;50.094;8.748;2024-02-14T13:36:29;5.22;;;2.47;;
72557;SDS011;60583;50.094;8.748;2024-02-14T13:39:14;4.85;;;2.53;;
72557;SDS011;60583;50.094;8.748;2024-02-14T13:41:58;5.70;;;2.08;;
72557;SDS011;60583;50.094;8.748;2024-02-14T13:44:43;4.18;;;2.03;;
72557;SDS011;60583;50.094;8.748;2024-02-14T13:47:27;4.95;;;2.53;;
72557;SDS011;60583;50.094;8.748;2024-02-14T13:50:11;5.28;;;2.50;;
72557;SDS011;60583;50.094;8.748;2024-02-14T13:52:56;4.80;;;2.13;;
72557;SDS011;60583;50.094;8.748;2024-02-14T13:55:40;5.80;;;2.53;;
72557;SDS011;60583;50.094;8.748;2024-02-14T13:58:23;5.13;;;2.40;;
72557;SDS011;60583;50.094;8.748;2024-02-14T14:01:07;5.22;;;2.28;;
72557;SDS011;60583;50.094;8.748;2024-02-14T14:03:51;5.10;;;2.30;;
72557;SDS011;60583;50.094;8.748;2024-02-14T14:06:38;5.63;;;2.53;;
72557;SDS011;60583;50.094;8.748;2024-02-14T14:09:22;7.30;;;2.58;;
72557;SDS011;60583;50.094;8.748;2024-02-14T14:12:06;5.75;;;2.70;;
72557;SDS011;60583;50.094;8.748;2024-02-14T14:14:50;4.88;;;2.60;;
72557;SDS011;60583;50.094;8.748;2024-02-14T14:17:34;4.80;;;2.60;;
72557;SDS011;60583;50.094;8.748;2024-02-14T14:20:18;5.72;;;2.70;;
72557;SDS011;60583;50.094;8.748;2024-02-14T14:23:02;5.55;;;2.85;;
72557;SDS011;60583;50.094;8.748;2024-02-14T14:25:46;5.68;;;2.67;;
72557;SDS011;60583;50.094;8.748;2024-02-14T14:28:30;4.90;;;2.90;;
72557;SDS011;60583;50.094;8.748;2024-02-14T14:31:15;6.38;;;2.70;;
72557;SDS011;60583;50.094;8.748;2024-02-14T14:33:59;7.65;;;2.85;;
72557;SDS011;60583;50.094;8.748;2024-02-14T14:36:43;5.70;;;2.90;;
72557;SDS011;60583;50.094;8.748;2024-02-14T14:39:27;5.90;;;2.72;;
72557;SDS011;60583;50.094;8.748;2024-02-14T14:42:11;7.05;;;2.60;;
72557;SDS011;60583;50.094;8.748;2024-02-14T14:44:55;4.72;;;2.60;;
72557;SDS011;60583;50.094;8.748;2024-02-14T14:47:39;5.57;;;2.70;;
72557;SDS011;60583;50.094;8.748;2024-02-14T14:50:23;4.47;;;2.55;;
72557;SDS011;60583;50.094;8.748;2024-02-14T14:53:09;4.97;;;2.45;;
72557;SDS011;60583;50.094;8.748;2024-02-14T14:55:53;7.57;;;2.92;;
72557;SDS011;60583;50.094;8.748;2024-02-14T14:58:41;6.10;;;3.00;;
72557;SDS011;60583;50.094;8.748;2024-02-14T15:01:26;6.13;;;2.90;;
72557;SDS011;60583;50.094;8.748;2024-02-14T15:04:11;5.75;;;2.90;;
72557;SDS011;60583;50.094;8.748;2024-02-14T15:06:55;7.07;;;3.10;;
72557;SDS011;60583;50.094;8.748;2024-02-14T15:09:39;6.53;;;3.17;;
72557;SDS011;60583;50.094;8.748;2024-02-14T15:12:23;4.80;;;2.75;;
72557;SDS011;60583;50.094;8.748;2024-02-14T15:15:09;6.85;;;2.78;;
72557;SDS011;60583;50.094;8.748;2024-02-14T15:17:53;5.28;;;2.90;;
72557;SDS011;60583;50.094;8.748;2024-02-14T15:20:37;5.03;;;2.60;;
72557;SDS011;60583;50.094;8.748;2024-02-14T15:23:21;5.50;;;2.33;;
72557;SDS011;60583;50.094;8.748;2024-02-14T15:26:06;4.85;;;2.33;;
72557;SDS011;60583;50.094;8.748;2024-02-14T15:28:52;5.85;;;2.30;;
72557;SDS011;60583;50.094;8.748;2024-02-14T15:32:01;4.13;;;2.10;;
72557;SDS011;60583;50.094;8.748;2024-02-14T15:35:04;4.93;;;2.10;;
72557;SDS011;60583;50.094;8.748;2024-02-14T15:37:49;3.83;;;1.90;;
72557;SDS011;60583;50.094;8.748;2024-02-14T15:40:33;4.97;;;2.20;;
72557;SDS011;60583;50.094;8.748;2024-02-14T15:43:19;4.25;;;2.10;;
72557;SDS011;60583;50.094;8.748;2024-02-14T15:46:03;5.05;;;2.28;;
72557;SDS011;60583;50.094;8.748;2024-02-14T15:48:47;3.72;;;2.17;;
72557;SDS011;60583;50.094;8.748;2024-02-14T15:51:31;4.40;;;2.20;;
72557;SDS011;60583;50.094;8.748;2024-02-14T15:54:15;5.85;;;2.40;;
72557;SDS011;60583;50.094;8.748;2024-02-14T15:57:00;5.95;;;2.72;;
72557;SDS011;60583;50.094;8.748;2024-02-14T15:59:44;5.43;;;2.85;;
72557;SDS011;60583;50.094;8.748;2024-02-14T16:02:28;5.07;;;2.60;;
72557;SDS011;60583;50.094;8.748;2024-02-14T16:05:12;5.38;;;2.28;;
72557;SDS011;60583;50.094;8.748;2024-02-14T16:07:56;4.95;;;2.42;;
72557;SDS011;60583;50.094;8.748;2024-02-14T16:10:39;6.25;;;2.55;;
72557;SDS011;60583;50.094;8.748;2024-02-14T16:13:25;4.75;;;2.50;;
72557;SDS011;60583;50.094;8.748;2024-02-14T16:16:09;6.35;;;2.80;;
72557;SDS011;60583;50.094;8.748;2024-02-14T16:18:53;6.35;;;3.10;;
72557;SDS011;60583;50.094;8.748;2024-02-14T16:21:38;5.88;;;2.65;;
72557;SDS011;60583;50.094;8.748;2024-02-14T16:24:22;6.68;;;3.00;;
72557;SDS011;60583;50.094;8.748;2024-02-14T16:27:06;5.53;;;2.85;;
72557;SDS011;60583;50.094;8.748;2024-02-14T16:29:50;5.90;;;2.90;;
72557;SDS011;60583;50.094;8.748;2024-02-14T16:32:34;5.00;;;2.90;;
72557;SDS011;60583;50.094;8.748;2024-02-14T16:35:19;5.25;;;3.10;;